sensor_id;sensor_type;location;lat;lon;timestamp;temperature;humidity
997;DHT22;487;50.126;8.698;2022-10-12T04:03:12;9.10;1.00
997;DHT22;487;50.126;8.698;2022-10-12T04:05:40;8.90;1.00
997;DHT22;487;50.126;8.698;2022-10-12T04:08:08;8.80;1.00
997;DHT22;487;50.126;8.698;2022-10-12T04:10:35;8.80;1.00
997;DHT22;487;50.126;8.698;2022-10-12T04:13:03;8.80;1.00
997;DHT22;487;50.126;8.698;2022-10-12T04:15:31;8.80;1.00
997;DHT22;487;50.126;8.698;2022-10-12T04:17:59;8.80;1.00
997;DHT22;487;50.126;8.698;2022-10-12T04:20:28;8.60;1.00
997;DHT22;487;50.126;8.698;2022-10-12T04:22:56;8.60;1.00
997;DHT22;487;50.126;8.698;2022-10-12T04:25:23;8.60;1.00
997;DHT22;487;50.126;8.698;2022-10-12T04:27:56;8.60;1.00
997;DHT22;487;50.126;8.698;2022-10-12T04:30:23;8.50;1.00
997;DHT22;487;50.126;8.698;2022-10-12T04:32:51;8.60;1.00
997;DHT22;487;50.126;8.698;2022-10-12T04:35:19;8.50;1.00
997;DHT22;487;50.126;8.698;2022-10-12T04:37:48;8.50;1.00
997;DHT22;487;50.126;8.698;2022-10-12T04:40:16;8.50;1.00
997;DHT22;487;50.126;8.698;2022-10-12T04:42:44;8.50;1.00
997;DHT22;487;50.126;8.698;2022-10-12T04:45:11;8.50;1.00
997;DHT22;487;50.126;8.698;2022-10-12T04:47:39;8.40;1.00
997;DHT22;487;50.126;8.698;2022-10-12T04:50:07;8.40;1.00
997;DHT22;487;50.126;8.698;2022-10-12T04:52:35;8.40;1.00
997;DHT22;487;50.126;8.698;2022-10-12T04:55:06;8.40;1.00
997;DHT22;487;50.126;8.698;2022-10-12T04:57:33;8.40;1.00
997;DHT22;487;50.126;8.698;2022-10-12T05:00:02;8.40;1.00
997;DHT22;487;50.126;8.698;2022-10-12T05:02:33;8.40;1.00
997;DHT22;487;50.126;8.698;2022-10-12T05:05:01;8.40;1.00
997;DHT22;487;50.126;8.698;2022-10-12T05:07:29;8.30;1.00
997;DHT22;487;50.126;8.698;2022-10-12T05:09:57;8.30;1.00
997;DHT22;487;50.126;8.698;2022-10-12T05:12:26;8.30;1.00
997;DHT22;487;50.126;8.698;2022-10-12T05:14:54;8.30;1.00
997;DHT22;487;50.126;8.698;2022-10-12T05:17:21;8.30;1.00
997;DHT22;487;50.126;8.698;2022-10-12T05:19:49;8.30;1.00
997;DHT22;487;50.126;8.698;2022-10-12T05:22:17;8.30;1.00
997;DHT22;487;50.126;8.698;2022-10-12T05:24:44;8.30;1.00
997;DHT22;487;50.126;8.698;2022-10-12T05:27:19;8.30;1.00
997;DHT22;487;50.126;8.698;2022-10-12T05:29:48;8.20;1.00
997;DHT22;487;50.126;8.698;2022-10-12T05:32:16;8.20;1.00
997;DHT22;487;50.126;8.698;2022-10-12T05:34:43;8.10;1.00
997;DHT22;487;50.126;8.698;2022-10-12T05:37:11;8.10;1.00
997;DHT22;487;50.126;8.698;2022-10-12T05:39:39;8.10;1.00
997;DHT22;487;50.126;8.698;2022-10-12T05:42:07;8.20;1.00
997;DHT22;487;50.126;8.698;2022-10-12T05:44:35;8.20;1.00
997;DHT22;487;50.126;8.698;2022-10-12T05:47:04;8.10;1.00
997;DHT22;487;50.126;8.698;2022-10-12T05:49:32;8.20;1.00
997;DHT22;487;50.126;8.698;2022-10-12T05:52:00;8.20;1.00
997;DHT22;487;50.126;8.698;2022-10-12T05:54:27;8.20;1.00
997;DHT22;487;50.126;8.698;2022-10-12T05:56:55;8.20;1.00
997;DHT22;487;50.126;8.698;2022-10-12T05:59:24;8.30;1.00
997;DHT22;487;50.126;8.698;2022-10-12T06:01:52;8.30;1.00
997;DHT22;487;50.126;8.698;2022-10-12T06:04:21;8.30;1.00
997;DHT22;487;50.126;8.698;2022-10-12T06:06:49;8.30;1.00
997;DHT22;487;50.126;8.698;2022-10-12T06:09:17;8.40;1.00
997;DHT22;487;50.126;8.698;2022-10-12T06:11:45;8.40;1.00
997;DHT22;487;50.126;8.698;2022-10-12T06:14:13;8.90;1.00
997;DHT22;487;50.126;8.698;2022-10-12T06:16:41;8.50;1.00
997;DHT22;487;50.126;8.698;2022-10-12T06:19:10;8.50;1.00
997;DHT22;487;50.126;8.698;2022-10-12T06:21:39;8.60;1.00
997;DHT22;487;50.126;8.698;2022-10-12T06:24:07;8.60;1.00
997;DHT22;487;50.126;8.698;2022-10-12T06:26:35;8.60;1.00
997;DHT22;487;50.126;8.698;2022-10-12T06:29:03;8.60;1.00
997;DHT22;487;50.126;8.698;2022-10-12T06:31:31;7.90;1.00
997;DHT22;487;50.126;8.698;2022-10-12T06:33:59;8.50;1.00
997;DHT22;487;50.126;8.698;2022-10-12T06:36:27;8.50;1.00
997;DHT22;487;50.126;8.698;2022-10-12T06:38:56;8.50;1.00
997;DHT22;487;50.126;8.698;2022-10-12T06:41:24;8.50;1.00
997;DHT22;487;50.126;8.698;2022-10-12T06:43:52;8.50;1.00
997;DHT22;487;50.126;8.698;2022-10-12T06:46:19;8.60;1.00
997;DHT22;487;50.126;8.698;2022-10-12T06:48:47;8.50;1.00
997;DHT22;487;50.126;8.698;2022-10-12T06:51:16;8.60;1.00
997;DHT22;487;50.126;8.698;2022-10-12T06:53:44;8.60;1.00
997;DHT22;487;50.126;8.698;2022-10-12T06:56:13;8.60;1.00
997;DHT22;487;50.126;8.698;2022-10-12T06:58:40;8.60;1.00
997;DHT22;487;50.126;8.698;2022-10-12T07:01:08;8.60;1.00
997;DHT22;487;50.126;8.698;2022-10-12T07:03:37;8.60;1.00
997;DHT22;487;50.126;8.698;2022-10-12T07:06:06;8.60;1.00
997;DHT22;487;50.126;8.698;2022-10-12T07:08:34;8.60;1.00
997;DHT22;487;50.126;8.698;2022-10-12T07:11:04;8.80;1.00
997;DHT22;487;50.126;8.698;2022-10-12T07:13:33;8.80;1.00
997;DHT22;487;50.126;8.698;2022-10-12T07:16:01;8.90;1.00
997;DHT22;487;50.126;8.698;2022-10-12T07:18:29;8.90;1.00
997;DHT22;487;50.126;8.698;2022-10-12T07:20:57;8.90;1.00
997;DHT22;487;50.126;8.698;2022-10-12T07:23:28;9.00;1.00
997;DHT22;487;50.126;8.698;2022-10-12T07:25:56;9.00;1.00
997;DHT22;487;50.126;8.698;2022-10-12T07:28:24;9.10;1.00
997;DHT22;487;50.126;8.698;2022-10-12T07:30:53;9.10;1.00
997;DHT22;487;50.126;8.698;2022-10-12T07:33:27;9.10;1.00
997;DHT22;487;50.126;8.698;2022-10-12T07:35:56;9.20;1.00
997;DHT22;487;50.126;8.698;2022-10-12T07:38:44;9.30;1.00
997;DHT22;487;50.126;8.698;2022-10-12T07:41:14;9.40;1.00
997;DHT22;487;50.126;8.698;2022-10-12T07:43:42;9.50;1.00
997;DHT22;487;50.126;8.698;2022-10-12T07:46:11;9.40;1.00
997;DHT22;487;50.126;8.698;2022-10-12T07:48:39;9.50;1.00
997;DHT22;487;50.126;8.698;2022-10-12T07:51:13;9.50;1.00
997;DHT22;487;50.126;8.698;2022-10-12T07:53:40;9.60;1.00
997;DHT22;487;50.126;8.698;2022-10-12T07:56:10;9.60;1.00
997;DHT22;487;50.126;8.698;2022-10-12T07:58:40;9.70;1.00
997;DHT22;487;50.126;8.698;2022-10-12T08:01:08;9.70;1.00
997;DHT22;487;50.126;8.698;2022-10-12T08:03:38;9.80;1.00
997;DHT22;487;50.126;8.698;2022-10-12T08:06:10;9.80;1.00
997;DHT22;487;50.126;8.698;2022-10-12T08:08:41;10.00;1.00
997;DHT22;487;50.126;8.698;2022-10-12T08:11:10;10.00;1.00
997;DHT22;487;50.126;8.698;2022-10-12T08:13:39;10.10;1.00
997;DHT22;487;50.126;8.698;2022-10-12T08:16:10;10.10;1.00
997;DHT22;487;50.126;8.698;2022-10-12T08:18:40;10.10;1.00
997;DHT22;487;50.126;8.698;2022-10-12T08:21:09;10.20;1.00
997;DHT22;487;50.126;8.698;2022-10-12T08:23:38;10.30;1.00
997;DHT22;487;50.126;8.698;2022-10-12T08:26:06;10.40;1.00
997;DHT22;487;50.126;8.698;2022-10-12T08:28:34;10.40;1.00
997;DHT22;487;50.126;8.698;2022-10-12T08:31:05;10.40;1.00
997;DHT22;487;50.126;8.698;2022-10-12T08:33:33;10.50;1.00
997;DHT22;487;50.126;8.698;2022-10-12T08:36:04;10.60;1.00
997;DHT22;487;50.126;8.698;2022-10-12T08:38:33;10.60;1.00
997;DHT22;487;50.126;8.698;2022-10-12T08:41:10;10.70;1.00
997;DHT22;487;50.126;8.698;2022-10-12T08:43:50;10.70;1.00
997;DHT22;487;50.126;8.698;2022-10-12T08:46:21;10.80;1.00
997;DHT22;487;50.126;8.698;2022-10-12T08:48:54;10.80;1.00
997;DHT22;487;50.126;8.698;2022-10-12T08:51:28;10.90;1.00
997;DHT22;487;50.126;8.698;2022-10-12T08:54:05;11.00;1.00
997;DHT22;487;50.126;8.698;2022-10-12T08:56:34;11.10;1.00
997;DHT22;487;50.126;8.698;2022-10-12T08:59:02;11.10;1.00
997;DHT22;487;50.126;8.698;2022-10-12T09:01:31;11.20;1.00
997;DHT22;487;50.126;8.698;2022-10-12T09:04:15;11.20;1.00
997;DHT22;487;50.126;8.698;2022-10-12T09:06:56;11.30;1.00
997;DHT22;487;50.126;8.698;2022-10-12T09:09:35;11.40;1.00
997;DHT22;487;50.126;8.698;2022-10-12T09:12:19;11.40;1.00
997;DHT22;487;50.126;8.698;2022-10-12T09:14:52;11.50;1.00
997;DHT22;487;50.126;8.698;2022-10-12T09:17:26;11.60;1.00
997;DHT22;487;50.126;8.698;2022-10-12T09:20:02;11.70;1.00
997;DHT22;487;50.126;8.698;2022-10-12T09:22:33;11.80;1.00
997;DHT22;487;50.126;8.698;2022-10-12T09:25:01;11.80;1.00
997;DHT22;487;50.126;8.698;2022-10-12T09:27:30;11.90;1.00
997;DHT22;487;50.126;8.698;2022-10-12T09:30:01;12.00;1.00
997;DHT22;487;50.126;8.698;2022-10-12T09:32:48;12.10;1.00
997;DHT22;487;50.126;8.698;2022-10-12T09:35:21;12.10;1.00
997;DHT22;487;50.126;8.698;2022-10-12T09:37:52;12.20;1.00
997;DHT22;487;50.126;8.698;2022-10-12T09:40:23;12.30;1.00
997;DHT22;487;50.126;8.698;2022-10-12T09:42:53;12.40;1.00
997;DHT22;487;50.126;8.698;2022-10-12T09:45:21;12.50;1.00
997;DHT22;487;50.126;8.698;2022-10-12T09:48:16;12.60;1.00
997;DHT22;487;50.126;8.698;2022-10-12T09:50:48;12.70;1.00
997;DHT22;487;50.126;8.698;2022-10-12T09:53:32;12.70;1.00
997;DHT22;487;50.126;8.698;2022-10-12T09:56:06;12.80;1.00
997;DHT22;487;50.126;8.698;2022-10-12T09:58:48;13.00;1.00
997;DHT22;487;50.126;8.698;2022-10-12T10:01:20;13.00;1.00
997;DHT22;487;50.126;8.698;2022-10-12T10:04:04;13.10;1.00
997;DHT22;487;50.126;8.698;2022-10-12T10:06:33;13.10;1.00
997;DHT22;487;50.126;8.698;2022-10-12T10:09:03;13.20;1.00
997;DHT22;487;50.126;8.698;2022-10-12T10:11:31;13.30;1.00
997;DHT22;487;50.126;8.698;2022-10-12T10:14:00;13.30;1.00
997;DHT22;487;50.126;8.698;2022-10-12T10:16:29;13.40;1.00
997;DHT22;487;50.126;8.698;2022-10-12T10:18:59;13.40;1.00
997;DHT22;487;50.126;8.698;2022-10-12T10:21:30;13.60;1.00
997;DHT22;487;50.126;8.698;2022-10-12T10:24:01;13.60;1.00
997;DHT22;487;50.126;8.698;2022-10-12T10:26:50;13.70;1.00
997;DHT22;487;50.126;8.698;2022-10-12T10:29:35;13.70;1.00
997;DHT22;487;50.126;8.698;2022-10-12T10:32:13;13.90;1.00
997;DHT22;487;50.126;8.698;2022-10-12T10:35:00;13.90;1.00
997;DHT22;487;50.126;8.698;2022-10-12T10:37:29;14.00;1.00
997;DHT22;487;50.126;8.698;2022-10-12T10:39:58;14.00;1.00
997;DHT22;487;50.126;8.698;2022-10-12T10:42:29;14.10;1.00
997;DHT22;487;50.126;8.698;2022-10-12T10:45:01;14.20;1.00
997;DHT22;487;50.126;8.698;2022-10-12T10:47:30;14.20;1.00
997;DHT22;487;50.126;8.698;2022-10-12T10:50:00;14.30;1.00
997;DHT22;487;50.126;8.698;2022-10-12T10:52:30;14.40;1.00
997;DHT22;487;50.126;8.698;2022-10-12T10:55:14;14.40;1.00
997;DHT22;487;50.126;8.698;2022-10-12T10:57:49;14.50;1.00
997;DHT22;487;50.126;8.698;2022-10-12T11:00:20;14.60;1.00
997;DHT22;487;50.126;8.698;2022-10-12T11:03:11;13.60;1.00
997;DHT22;487;50.126;8.698;2022-10-12T11:05:43;14.80;1.00
997;DHT22;487;50.126;8.698;2022-10-12T11:08:16;14.90;1.00
997;DHT22;487;50.126;8.698;2022-10-12T11:10:49;15.10;1.00
997;DHT22;487;50.126;8.698;2022-10-12T11:13:23;15.10;1.00
997;DHT22;487;50.126;8.698;2022-10-12T11:15:55;15.20;1.00
997;DHT22;487;50.126;8.698;2022-10-12T11:18:29;15.30;1.00
997;DHT22;487;50.126;8.698;2022-10-12T11:21:03;15.40;1.00
997;DHT22;487;50.126;8.698;2022-10-12T11:23:37;15.40;1.00
997;DHT22;487;50.126;8.698;2022-10-12T11:26:19;15.50;1.00
997;DHT22;487;50.126;8.698;2022-10-12T11:28:52;15.60;1.00
997;DHT22;487;50.126;8.698;2022-10-12T11:31:23;15.80;1.00
997;DHT22;487;50.126;8.698;2022-10-12T11:33:54;15.80;1.00
997;DHT22;487;50.126;8.698;2022-10-12T11:36:25;15.80;1.00
997;DHT22;487;50.126;8.698;2022-10-12T11:38:58;15.90;1.00
997;DHT22;487;50.126;8.698;2022-10-12T11:41:36;16.10;1.00
997;DHT22;487;50.126;8.698;2022-10-12T11:44:38;16.10;1.00
997;DHT22;487;50.126;8.698;2022-10-12T11:47:12;16.30;1.00
997;DHT22;487;50.126;8.698;2022-10-12T11:49:48;16.50;1.00
997;DHT22;487;50.126;8.698;2022-10-12T11:52:17;16.60;1.00
997;DHT22;487;50.126;8.698;2022-10-12T11:54:56;16.70;1.00
997;DHT22;487;50.126;8.698;2022-10-12T11:57:30;16.90;1.00
997;DHT22;487;50.126;8.698;2022-10-12T12:00:05;17.40;1.00
997;DHT22;487;50.126;8.698;2022-10-12T12:02:38;17.10;1.00
997;DHT22;487;50.126;8.698;2022-10-12T12:05:11;17.10;1.00
997;DHT22;487;50.126;8.698;2022-10-12T12:07:44;17.20;1.00
997;DHT22;487;50.126;8.698;2022-10-12T12:13:30;17.20;1.00
997;DHT22;487;50.126;8.698;2022-10-12T12:16:29;18.40;1.00
997;DHT22;487;50.126;8.698;2022-10-12T12:19:18;17.30;1.00
997;DHT22;487;50.126;8.698;2022-10-12T12:22:16;17.30;1.00
997;DHT22;487;50.126;8.698;2022-10-12T12:24:59;17.40;1.00
997;DHT22;487;50.126;8.698;2022-10-12T12:27:33;17.40;1.00
997;DHT22;487;50.126;8.698;2022-10-12T12:30:04;17.50;1.00
997;DHT22;487;50.126;8.698;2022-10-12T12:32:44;17.60;1.00
997;DHT22;487;50.126;8.698;2022-10-12T12:35:20;17.70;1.00
997;DHT22;487;50.126;8.698;2022-10-12T12:38:12;17.80;1.00
997;DHT22;487;50.126;8.698;2022-10-12T12:41:03;18.00;1.00
997;DHT22;487;50.126;8.698;2022-10-12T12:43:51;18.00;1.00
997;DHT22;487;50.126;8.698;2022-10-12T12:46:20;18.00;1.00
997;DHT22;487;50.126;8.698;2022-10-12T12:49:03;18.00;1.00
997;DHT22;487;50.126;8.698;2022-10-12T12:51:39;17.90;1.00
997;DHT22;487;50.126;8.698;2022-10-12T12:54:15;17.80;1.00
997;DHT22;487;50.126;8.698;2022-10-12T12:57:04;17.70;1.00
997;DHT22;487;50.126;8.698;2022-10-12T13:00:07;17.60;1.00
997;DHT22;487;50.126;8.698;2022-10-12T13:03:14;17.50;1.00
997;DHT22;487;50.126;8.698;2022-10-12T13:06:26;17.60;1.00
997;DHT22;487;50.126;8.698;2022-10-12T13:09:27;17.50;1.00
997;DHT22;487;50.126;8.698;2022-10-12T13:12:27;17.50;1.00
997;DHT22;487;50.126;8.698;2022-10-12T13:15:17;17.60;1.00
997;DHT22;487;50.126;8.698;2022-10-12T13:18:05;17.60;1.00
997;DHT22;487;50.126;8.698;2022-10-12T13:20:54;17.60;1.00
997;DHT22;487;50.126;8.698;2022-10-12T13:23:25;17.60;1.00
997;DHT22;487;50.126;8.698;2022-10-12T13:25:57;17.60;1.00
997;DHT22;487;50.126;8.698;2022-10-12T13:28:28;17.70;1.00
997;DHT22;487;50.126;8.698;2022-10-12T13:30:59;17.70;1.00
997;DHT22;487;50.126;8.698;2022-10-12T13:33:31;17.70;1.00
997;DHT22;487;50.126;8.698;2022-10-12T13:36:04;17.70;1.00
997;DHT22;487;50.126;8.698;2022-10-12T13:38:35;17.70;1.00
997;DHT22;487;50.126;8.698;2022-10-12T13:41:07;17.60;1.00
997;DHT22;487;50.126;8.698;2022-10-12T13:43:41;17.60;1.00
997;DHT22;487;50.126;8.698;2022-10-12T13:46:11;17.80;1.00
997;DHT22;487;50.126;8.698;2022-10-12T13:48:39;17.80;1.00
997;DHT22;487;50.126;8.698;2022-10-12T13:51:28;18.00;1.00
997;DHT22;487;50.126;8.698;2022-10-12T13:53:57;18.00;1.00
997;DHT22;487;50.126;8.698;2022-10-12T13:56:27;17.90;1.00
997;DHT22;487;50.126;8.698;2022-10-12T13:58:57;17.70;1.00
997;DHT22;487;50.126;8.698;2022-10-12T14:01:27;17.60;1.00
997;DHT22;487;50.126;8.698;2022-10-12T14:04:02;17.60;1.00
997;DHT22;487;50.126;8.698;2022-10-12T14:06:32;17.60;1.00
997;DHT22;487;50.126;8.698;2022-10-12T14:09:06;17.70;1.00
997;DHT22;487;50.126;8.698;2022-10-12T14:11:36;17.70;1.00
997;DHT22;487;50.126;8.698;2022-10-12T14:14:04;17.70;1.00
997;DHT22;487;50.126;8.698;2022-10-12T14:16:33;17.70;1.00
997;DHT22;487;50.126;8.698;2022-10-12T14:19:16;17.70;1.00
997;DHT22;487;50.126;8.698;2022-10-12T14:21:45;17.70;1.00
997;DHT22;487;50.126;8.698;2022-10-12T14:24:17;17.70;1.00
997;DHT22;487;50.126;8.698;2022-10-12T14:26:52;17.70;1.00
997;DHT22;487;50.126;8.698;2022-10-12T14:29:33;17.70;1.00
997;DHT22;487;50.126;8.698;2022-10-12T14:32:02;17.40;1.00
997;DHT22;487;50.126;8.698;2022-10-12T14:34:41;17.40;1.00
997;DHT22;487;50.126;8.698;2022-10-12T14:37:26;17.40;1.00
997;DHT22;487;50.126;8.698;2022-10-12T14:39:56;17.40;1.00
997;DHT22;487;50.126;8.698;2022-10-12T14:42:30;17.40;1.00
997;DHT22;487;50.126;8.698;2022-10-12T14:44:59;18.10;1.00
997;DHT22;487;50.126;8.698;2022-10-12T14:47:30;17.40;1.00
997;DHT22;487;50.126;8.698;2022-10-12T14:49:59;17.40;1.00
997;DHT22;487;50.126;8.698;2022-10-12T14:52:37;17.40;1.00
997;DHT22;487;50.126;8.698;2022-10-12T14:55:13;17.40;1.00
997;DHT22;487;50.126;8.698;2022-10-12T14:57:42;17.40;1.00
997;DHT22;487;50.126;8.698;2022-10-12T15:00:13;17.40;1.00
997;DHT22;487;50.126;8.698;2022-10-12T15:02:42;17.40;1.00
997;DHT22;487;50.126;8.698;2022-10-12T15:05:11;17.50;1.00
997;DHT22;487;50.126;8.698;2022-10-12T15:07:39;17.40;1.00
997;DHT22;487;50.126;8.698;2022-10-12T15:10:08;17.50;1.00
997;DHT22;487;50.126;8.698;2022-10-12T15:12:36;17.40;1.00
997;DHT22;487;50.126;8.698;2022-10-12T15:15:23;17.40;1.00
997;DHT22;487;50.126;8.698;2022-10-12T15:17:55;17.40;1.00
997;DHT22;487;50.126;8.698;2022-10-12T15:20:23;17.40;1.00
997;DHT22;487;50.126;8.698;2022-10-12T15:22:51;17.40;1.00
997;DHT22;487;50.126;8.698;2022-10-12T15:25:23;17.40;1.00
997;DHT22;487;50.126;8.698;2022-10-12T15:27:52;17.40;1.00
997;DHT22;487;50.126;8.698;2022-10-12T15:30:20;17.40;1.00
997;DHT22;487;50.126;8.698;2022-10-12T15:32:48;17.30;1.00
997;DHT22;487;50.126;8.698;2022-10-12T15:35:18;17.30;1.00
997;DHT22;487;50.126;8.698;2022-10-12T15:37:47;17.20;1.00
997;DHT22;487;50.126;8.698;2022-10-12T15:40:16;17.20;1.00
997;DHT22;487;50.126;8.698;2022-10-12T15:42:45;17.20;1.00
997;DHT22;487;50.126;8.698;2022-10-12T15:45:19;17.20;1.00
997;DHT22;487;50.126;8.698;2022-10-12T15:47:50;17.20;1.00
997;DHT22;487;50.126;8.698;2022-10-12T15:50:19;17.10;1.00
997;DHT22;487;50.126;8.698;2022-10-12T15:52:48;17.10;1.00
997;DHT22;487;50.126;8.698;2022-10-12T15:55:18;17.10;1.00
997;DHT22;487;50.126;8.698;2022-10-12T15:57:49;17.10;1.00
997;DHT22;487;50.126;8.698;2022-10-12T16:00:19;17.10;1.00
997;DHT22;487;50.126;8.698;2022-10-12T16:02:48;17.00;1.00
997;DHT22;487;50.126;8.698;2022-10-12T16:05:19;17.00;1.00
997;DHT22;487;50.126;8.698;2022-10-12T16:07:48;17.00;1.00
997;DHT22;487;50.126;8.698;2022-10-12T16:10:18;16.90;1.00
997;DHT22;487;50.126;8.698;2022-10-12T16:12:49;16.90;1.00
997;DHT22;487;50.126;8.698;2022-10-12T16:15:19;16.90;1.00
997;DHT22;487;50.126;8.698;2022-10-12T16:17:48;16.80;1.00
997;DHT22;487;50.126;8.698;2022-10-12T16:20:16;16.80;1.00
997;DHT22;487;50.126;8.698;2022-10-12T16:22:45;16.80;1.00
997;DHT22;487;50.126;8.698;2022-10-12T16:25:19;16.80;1.00
997;DHT22;487;50.126;8.698;2022-10-12T16:27:51;16.70;1.00
997;DHT22;487;50.126;8.698;2022-10-12T16:30:19;16.70;1.00
997;DHT22;487;50.126;8.698;2022-10-12T16:32:47;16.70;1.00
997;DHT22;487;50.126;8.698;2022-10-12T16:35:15;16.60;1.00
997;DHT22;487;50.126;8.698;2022-10-12T16:37:44;16.60;1.00
997;DHT22;487;50.126;8.698;2022-10-12T16:40:12;16.60;1.00
997;DHT22;487;50.126;8.698;2022-10-12T16:42:40;16.50;1.00
997;DHT22;487;50.126;8.698;2022-10-12T16:45:10;16.50;1.00
997;DHT22;487;50.126;8.698;2022-10-12T16:47:38;16.40;1.00
997;DHT22;487;50.126;8.698;2022-10-12T16:50:09;16.40;1.00
997;DHT22;487;50.126;8.698;2022-10-12T16:52:36;16.40;1.00
997;DHT22;487;50.126;8.698;2022-10-12T16:55:05;16.30;1.00
997;DHT22;487;50.126;8.698;2022-10-12T16:57:33;16.30;1.00
997;DHT22;487;50.126;8.698;2022-10-12T17:00:02;16.30;1.00
997;DHT22;487;50.126;8.698;2022-10-12T17:02:32;16.20;1.00
997;DHT22;487;50.126;8.698;2022-10-12T17:05:00;16.20;1.00
997;DHT22;487;50.126;8.698;2022-10-12T17:07:27;16.20;1.00
997;DHT22;487;50.126;8.698;2022-10-12T17:09:56;16.10;1.00
997;DHT22;487;50.126;8.698;2022-10-12T17:12:25;16.10;1.00
997;DHT22;487;50.126;8.698;2022-10-12T17:14:53;16.10;1.00
997;DHT22;487;50.126;8.698;2022-10-12T17:17:20;16.10;1.00
997;DHT22;487;50.126;8.698;2022-10-12T17:19:49;16.10;1.00
997;DHT22;487;50.126;8.698;2022-10-12T17:22:17;16.10;1.00
997;DHT22;487;50.126;8.698;2022-10-12T17:24:45;16.10;1.00
997;DHT22;487;50.126;8.698;2022-10-12T17:27:13;16.10;1.00
997;DHT22;487;50.126;8.698;2022-10-12T17:29:42;16.10;1.00
997;DHT22;487;50.126;8.698;2022-10-12T17:32:11;16.00;1.00
997;DHT22;487;50.126;8.698;2022-10-12T17:34:41;16.00;1.00
997;DHT22;487;50.126;8.698;2022-10-12T17:37:12;16.00;1.00
997;DHT22;487;50.126;8.698;2022-10-12T17:39:41;16.00;1.00
997;DHT22;487;50.126;8.698;2022-10-12T17:42:10;16.00;1.00
997;DHT22;487;50.126;8.698;2022-10-12T17:44:38;16.00;1.00
997;DHT22;487;50.126;8.698;2022-10-12T17:47:06;16.00;1.00
997;DHT22;487;50.126;8.698;2022-10-12T17:49:34;16.00;1.00
997;DHT22;487;50.126;8.698;2022-10-12T17:52:01;16.00;1.00
997;DHT22;487;50.126;8.698;2022-10-12T17:54:30;16.00;1.00
997;DHT22;487;50.126;8.698;2022-10-12T17:56:58;15.90;1.00
997;DHT22;487;50.126;8.698;2022-10-12T17:59:26;15.90;1.00
997;DHT22;487;50.126;8.698;2022-10-12T18:01:54;15.90;1.00
997;DHT22;487;50.126;8.698;2022-10-12T18:04:22;15.90;1.00
997;DHT22;487;50.126;8.698;2022-10-12T18:06:50;17.30;1.00
997;DHT22;487;50.126;8.698;2022-10-12T18:09:21;15.90;1.00
997;DHT22;487;50.126;8.698;2022-10-12T18:11:50;16.00;1.00
997;DHT22;487;50.126;8.698;2022-10-12T18:14:19;16.00;1.00
997;DHT22;487;50.126;8.698;2022-10-12T18:16:47;16.00;1.00
997;DHT22;487;50.126;8.698;2022-10-12T18:19:15;16.00;1.00
997;DHT22;487;50.126;8.698;2022-10-12T18:21:43;15.90;1.00
997;DHT22;487;50.126;8.698;2022-10-12T18:24:11;15.90;1.00
997;DHT22;487;50.126;8.698;2022-10-12T18:26:44;15.80;1.00
997;DHT22;487;50.126;8.698;2022-10-12T18:29:29;15.80;1.00
997;DHT22;487;50.126;8.698;2022-10-12T18:32:03;15.80;1.00
997;DHT22;487;50.126;8.698;2022-10-12T18:37:02;15.80;1.00
997;DHT22;487;50.126;8.698;2022-10-12T18:44:37;15.60;1.00
997;DHT22;487;50.126;8.698;2022-10-12T18:47:20;15.50;1.00
997;DHT22;487;50.126;8.698;2022-10-12T18:49:50;15.50;1.00
997;DHT22;487;50.126;8.698;2022-10-12T18:52:18;15.40;1.00
997;DHT22;487;50.126;8.698;2022-10-12T18:54:48;15.30;1.00
997;DHT22;487;50.126;8.698;2022-10-12T18:57:16;15.30;1.00
997;DHT22;487;50.126;8.698;2022-10-12T18:59:48;15.30;1.00
997;DHT22;487;50.126;8.698;2022-10-12T19:04:47;15.20;1.00
997;DHT22;487;50.126;8.698;2022-10-12T19:07:15;15.20;1.00
997;DHT22;487;50.126;8.698;2022-10-12T19:09:43;15.20;1.00
997;DHT22;487;50.126;8.698;2022-10-12T19:12:10;15.20;1.00
997;DHT22;487;50.126;8.698;2022-10-12T19:14:42;15.20;1.00
997;DHT22;487;50.126;8.698;2022-10-12T19:17:11;15.20;1.00
997;DHT22;487;50.126;8.698;2022-10-12T19:19:39;15.20;1.00
997;DHT22;487;50.126;8.698;2022-10-12T19:22:07;15.10;1.00
997;DHT22;487;50.126;8.698;2022-10-12T19:24:35;15.10;1.00
997;DHT22;487;50.126;8.698;2022-10-12T19:27:02;15.10;1.00
997;DHT22;487;50.126;8.698;2022-10-12T19:29:30;15.10;1.00
997;DHT22;487;50.126;8.698;2022-10-12T19:31:58;15.00;1.00
997;DHT22;487;50.126;8.698;2022-10-12T19:39:24;14.90;1.00
997;DHT22;487;50.126;8.698;2022-10-12T19:41:52;14.80;1.00
997;DHT22;487;50.126;8.698;2022-10-12T19:44:20;14.80;1.00
997;DHT22;487;50.126;8.698;2022-10-12T19:46:48;14.80;1.00
997;DHT22;487;50.126;8.698;2022-10-12T19:49:17;14.70;1.00
997;DHT22;487;50.126;8.698;2022-10-12T19:51:47;14.70;1.00
997;DHT22;487;50.126;8.698;2022-10-12T19:54:14;14.70;1.00
997;DHT22;487;50.126;8.698;2022-10-12T19:56:42;14.80;1.00
997;DHT22;487;50.126;8.698;2022-10-12T19:59:10;14.80;1.00
997;DHT22;487;50.126;8.698;2022-10-12T20:01:38;14.80;1.00
997;DHT22;487;50.126;8.698;2022-10-12T20:04:08;14.80;1.00
997;DHT22;487;50.126;8.698;2022-10-12T20:06:37;14.80;1.00
997;DHT22;487;50.126;8.698;2022-10-12T20:09:07;14.80;1.00
997;DHT22;487;50.126;8.698;2022-10-12T20:11:35;14.80;1.00
997;DHT22;487;50.126;8.698;2022-10-12T20:14:05;14.70;1.00
997;DHT22;487;50.126;8.698;2022-10-12T20:16:34;14.70;1.00
997;DHT22;487;50.126;8.698;2022-10-12T20:19:03;14.70;1.00
997;DHT22;487;50.126;8.698;2022-10-12T20:21:32;14.70;1.00
997;DHT22;487;50.126;8.698;2022-10-12T20:24:02;14.70;1.00
997;DHT22;487;50.126;8.698;2022-10-12T20:26:31;14.60;1.00
997;DHT22;487;50.126;8.698;2022-10-12T20:28:59;14.60;1.00
997;DHT22;487;50.126;8.698;2022-10-12T20:31:27;14.60;1.00
997;DHT22;487;50.126;8.698;2022-10-12T20:33:55;14.60;1.00
997;DHT22;487;50.126;8.698;2022-10-12T20:36:25;14.60;1.00
997;DHT22;487;50.126;8.698;2022-10-12T20:38:53;14.60;1.00
997;DHT22;487;50.126;8.698;2022-10-12T20:41:21;14.60;1.00
997;DHT22;487;50.126;8.698;2022-10-12T20:43:54;14.50;1.00
997;DHT22;487;50.126;8.698;2022-10-12T20:46:23;14.40;1.00
997;DHT22;487;50.126;8.698;2022-10-12T20:48:55;14.40;1.00
997;DHT22;487;50.126;8.698;2022-10-12T20:51:26;14.40;1.00
997;DHT22;487;50.126;8.698;2022-10-12T20:53:55;14.30;1.00
997;DHT22;487;50.126;8.698;2022-10-12T20:56:25;14.20;1.00
997;DHT22;487;50.126;8.698;2022-10-12T20:58:54;14.20;1.00
997;DHT22;487;50.126;8.698;2022-10-12T21:01:23;14.10;1.00
997;DHT22;487;50.126;8.698;2022-10-12T21:03:51;14.10;1.00
997;DHT22;487;50.126;8.698;2022-10-12T21:06:19;14.00;1.00
997;DHT22;487;50.126;8.698;2022-10-12T21:08:49;14.00;1.00
997;DHT22;487;50.126;8.698;2022-10-12T21:11:20;14.00;1.00
997;DHT22;487;50.126;8.698;2022-10-12T21:13:49;14.00;1.00
997;DHT22;487;50.126;8.698;2022-10-12T21:16:19;13.90;1.00
997;DHT22;487;50.126;8.698;2022-10-12T21:21:20;13.90;1.00
997;DHT22;487;50.126;8.698;2022-10-12T21:23:51;13.90;1.00
997;DHT22;487;50.126;8.698;2022-10-12T21:28:48;13.90;1.00
997;DHT22;487;50.126;8.698;2022-10-12T21:31:18;13.90;1.00
997;DHT22;487;50.126;8.698;2022-10-12T21:33:46;13.80;1.00
997;DHT22;487;50.126;8.698;2022-10-12T21:38:44;13.80;1.00
997;DHT22;487;50.126;8.698;2022-10-12T21:41:16;13.80;1.00
997;DHT22;487;50.126;8.698;2022-10-12T21:43:44;13.80;1.00
997;DHT22;487;50.126;8.698;2022-10-12T21:46:15;13.80;1.00
997;DHT22;487;50.126;8.698;2022-10-12T21:48:44;13.80;1.00
997;DHT22;487;50.126;8.698;2022-10-12T21:51:13;13.80;1.00
997;DHT22;487;50.126;8.698;2022-10-12T21:53:44;13.80;1.00